sensor_id;sensor_type;location;lat;lon;timestamp;P1;P2;P0
62547;PMS7003;48602;45.192;5.722;2022-08-19T00:01:39;8.60;8.40;6.20
62547;PMS7003;48602;45.192;5.722;2022-08-19T00:04:08;6.00;6.00;5.00
62547;PMS7003;48602;45.192;5.722;2022-08-19T00:06:36;4.20;4.20;4.00
62547;PMS7003;48602;45.192;5.722;2022-08-19T00:09:04;6.20;5.80;5.00
62547;PMS7003;48602;45.192;5.722;2022-08-19T00:11:32;5.60;5.60;4.60
62547;PMS7003;48602;45.192;5.722;2022-08-19T00:14:01;5.20;5.00;4.00
62547;PMS7003;48602;45.192;5.722;2022-08-19T00:16:26;6.75;6.00;5.00
62547;PMS7003;48602;45.192;5.722;2022-08-19T00:18:52;8.25;6.75;6.00
62547;PMS7003;48602;45.192;5.722;2022-08-19T00:21:18;3.20;3.20;3.00
62547;PMS7003;48602;45.192;5.722;2022-08-19T00:23:44;8.25;7.75;6.50
62547;PMS7003;48602;45.192;5.722;2022-08-19T00:26:10;6.00;5.00;4.00
62547;PMS7003;48602;45.192;5.722;2022-08-19T00:28:36;4.80;4.00;4.00
62547;PMS7003;48602;45.192;5.722;2022-08-19T00:31:02;5.00;5.00;4.20
62547;PMS7003;48602;45.192;5.722;2022-08-19T00:33:29;5.80;4.40;3.60
62547;PMS7003;48602;45.192;5.722;2022-08-19T00:36:02;2.00;2.00;1.75
62547;PMS7003;48602;45.192;5.722;2022-08-19T00:38:29;6.20;6.20;5.80
62547;PMS7003;48602;45.192;5.722;2022-08-19T00:40:55;4.40;4.40;4.00
62547;PMS7003;48602;45.192;5.722;2022-08-19T00:43:22;4.50;4.00;3.75
62547;PMS7003;48602;45.192;5.722;2022-08-19T00:45:49;2.60;2.20;1.40
62547;PMS7003;48602;45.192;5.722;2022-08-19T00:48:15;3.50;3.00;3.00
62547;PMS7003;48602;45.192;5.722;2022-08-19T00:50:42;6.40;4.00;3.60
62547;PMS7003;48602;45.192;5.722;2022-08-19T00:53:09;3.60;2.80;2.60
62547;PMS7003;48602;45.192;5.722;2022-08-19T00:55:37;4.20;4.00;3.00
62547;PMS7003;48602;45.192;5.722;2022-08-19T00:58:06;3.80;3.80;3.00
62547;PMS7003;48602;45.192;5.722;2022-08-19T01:00:35;3.00;3.00;3.00
62547;PMS7003;48602;45.192;5.722;2022-08-19T01:03:06;4.20;3.00;2.80
62547;PMS7003;48602;45.192;5.722;2022-08-19T01:05:34;4.00;3.00;2.80
62547;PMS7003;48602;45.192;5.722;2022-08-19T01:08:00;3.40;3.20;2.40
62547;PMS7003;48602;45.192;5.722;2022-08-19T01:10:29;4.00;4.00;4.00
62547;PMS7003;48602;45.192;5.722;2022-08-19T01:12:58;5.20;5.20;4.20
62547;PMS7003;48602;45.192;5.722;2022-08-19T01:15:30;5.00;5.00;4.80
62547;PMS7003;48602;45.192;5.722;2022-08-19T01:18:04;5.20;5.20;4.20
62547;PMS7003;48602;45.192;5.722;2022-08-19T01:20:33;5.40;4.40;4.20
62547;PMS7003;48602;45.192;5.722;2022-08-19T01:22:59;5.80;5.00;4.20
62547;PMS7003;48602;45.192;5.722;2022-08-19T01:25:35;4.25;4.25;3.50
62547;PMS7003;48602;45.192;5.722;2022-08-19T01:28:07;5.00;5.00;4.00
62547;PMS7003;48602;45.192;5.722;2022-08-19T01:30:33;6.25;4.50;4.00
62547;PMS7003;48602;45.192;5.722;2022-08-19T01:33:00;6.20;6.20;5.60
62547;PMS7003;48602;45.192;5.722;2022-08-19T01:35:29;5.25;5.25;5.00
62547;PMS7003;48602;45.192;5.722;2022-08-19T01:38:03;6.20;6.20;5.40
62547;PMS7003;48602;45.192;5.722;2022-08-19T01:40:32;6.20;6.20;5.40
62547;PMS7003;48602;45.192;5.722;2022-08-19T01:43:00;7.20;7.00;5.80
62547;PMS7003;48602;45.192;5.722;2022-08-19T01:45:28;2.60;2.20;1.60
62547;PMS7003;48602;45.192;5.722;2022-08-19T01:47:56;4.40;4.40;3.00
62547;PMS7003;48602;45.192;5.722;2022-08-19T01:50:23;10.00;9.00;8.00
62547;PMS7003;48602;45.192;5.722;2022-08-19T01:52:48;7.50;6.25;5.50
62547;PMS7003;48602;45.192;5.722;2022-08-19T01:55:15;9.25;9.25;7.25
62547;PMS7003;48602;45.192;5.722;2022-08-19T01:57:44;10.25;9.50;7.25
62547;PMS7003;48602;45.192;5.722;2022-08-19T02:00:14;8.80;8.80;7.00
62547;PMS7003;48602;45.192;5.722;2022-08-19T02:02:42;14.25;9.50;7.50
62547;PMS7003;48602;45.192;5.722;2022-08-19T02:05:08;8.00;8.00;6.25
62547;PMS7003;48602;45.192;5.722;2022-08-19T02:07:35;6.00;6.00;4.00
62547;PMS7003;48602;45.192;5.722;2022-08-19T02:10:02;5.40;4.00;3.80
62547;PMS7003;48602;45.192;5.722;2022-08-19T02:12:29;7.00;7.00;6.00
62547;PMS7003;48602;45.192;5.722;2022-08-19T02:14:54;8.00;7.50;7.00
62547;PMS7003;48602;45.192;5.722;2022-08-19T02:17:19;7.25;7.25;5.75
62547;PMS7003;48602;45.192;5.722;2022-08-19T02:19:45;10.00;7.00;6.00
62547;PMS7003;48602;45.192;5.722;2022-08-19T02:22:11;7.00;6.75;5.25
62547;PMS7003;48602;45.192;5.722;2022-08-19T02:24:36;6.00;6.00;6.00
62547;PMS7003;48602;45.192;5.722;2022-08-19T02:27:01;8.50;7.25;6.00
62547;PMS7003;48602;45.192;5.722;2022-08-19T02:29:27;10.25;9.00;7.50
62547;PMS7003;48602;45.192;5.722;2022-08-19T02:31:52;9.00;8.00;7.00
62547;PMS7003;48602;45.192;5.722;2022-08-19T02:34:18;6.75;6.50;5.50
62547;PMS7003;48602;45.192;5.722;2022-08-19T02:36:44;4.00;2.00;2.00
62547;PMS7003;48602;45.192;5.722;2022-08-19T02:39:09;5.00;4.00;3.25
62547;PMS7003;48602;45.192;5.722;2022-08-19T02:41:35;4.00;4.00;4.00
62547;PMS7003;48602;45.192;5.722;2022-08-19T02:44:01;6.50;5.00;5.00
62547;PMS7003;48602;45.192;5.722;2022-08-19T02:46:30;7.80;6.00;5.00
62547;PMS7003;48602;45.192;5.722;2022-08-19T02:48:57;4.60;4.60;3.40
62547;PMS7003;48602;45.192;5.722;2022-08-19T02:51:31;5.60;5.60;4.60
62547;PMS7003;48602;45.192;5.722;2022-08-19T02:53:59;7.00;5.50;4.75
62547;PMS7003;48602;45.192;5.722;2022-08-19T02:56:25;7.25;5.25;4.75
62547;PMS7003;48602;45.192;5.722;2022-08-19T02:58:53;8.00;8.00;6.80
62547;PMS7003;48602;45.192;5.722;2022-08-19T03:01:29;5.25;5.25;4.50
62547;PMS7003;48602;45.192;5.722;2022-08-19T03:03:57;7.50;7.00;5.00
62547;PMS7003;48602;45.192;5.722;2022-08-19T03:06:24;4.25;4.25;4.00
62547;PMS7003;48602;45.192;5.722;2022-08-19T03:08:50;4.40;4.40;4.00
62547;PMS7003;48602;45.192;5.722;2022-08-19T03:11:17;7.00;6.00;5.25
62547;PMS7003;48602;45.192;5.722;2022-08-19T03:13:47;9.00;7.00;5.00
62547;PMS7003;48602;45.192;5.722;2022-08-19T03:16:15;6.40;6.20;4.80
62547;PMS7003;48602;45.192;5.722;2022-08-19T03:18:41;7.40;6.80;6.00
62547;PMS7003;48602;45.192;5.722;2022-08-19T03:21:07;7.50;6.50;5.00
62547;PMS7003;48602;45.192;5.722;2022-08-19T03:23:33;10.00;10.00;8.00
62547;PMS7003;48602;45.192;5.722;2022-08-19T03:26:02;5.00;4.00;2.80
62547;PMS7003;48602;45.192;5.722;2022-08-19T03:28:29;4.40;4.40;3.80
62547;PMS7003;48602;45.192;5.722;2022-08-19T03:30:59;8.00;6.00;4.50
62547;PMS7003;48602;45.192;5.722;2022-08-19T03:33:27;5.50;5.50;4.50
62547;PMS7003;48602;45.192;5.722;2022-08-19T03:38:33;6.40;6.00;5.20
62547;PMS7003;48602;45.192;5.722;2022-08-19T03:41:04;6.40;6.00;5.00
62547;PMS7003;48602;45.192;5.722;2022-08-19T03:43:32;4.60;4.60;4.20
62547;PMS7003;48602;45.192;5.722;2022-08-19T03:46:06;6.20;5.40;4.40
62547;PMS7003;48602;45.192;5.722;2022-08-19T03:48:35;6.00;6.00;5.00
62547;PMS7003;48602;45.192;5.722;2022-08-19T03:51:02;6.20;6.20;5.00
62547;PMS7003;48602;45.192;5.722;2022-08-19T03:53:28;6.00;6.00;5.00
62547;PMS7003;48602;45.192;5.722;2022-08-19T03:55:56;5.60;5.60;4.60
62547;PMS7003;48602;45.192;5.722;2022-08-19T03:58:24;6.00;5.60;4.80
62547;PMS7003;48602;45.192;5.722;2022-08-19T04:00:50;5.25;5.00;4.25
62547;PMS7003;48602;45.192;5.722;2022-08-19T04:03:15;3.75;3.75;3.00
62547;PMS7003;48602;45.192;5.722;2022-08-19T04:05:43;5.20;5.20;4.00
62547;PMS7003;48602;45.192;5.722;2022-08-19T04:08:09;6.00;6.00;5.00
62547;PMS7003;48602;45.192;5.722;2022-08-19T04:10:35;4.00;4.00;4.00
62547;PMS7003;48602;45.192;5.722;2022-08-19T04:13:01;4.20;4.20;4.00
62547;PMS7003;48602;45.192;5.722;2022-08-19T04:15:29;5.40;5.40;4.80
62547;PMS7003;48602;45.192;5.722;2022-08-19T04:17:58;3.20;3.00;3.00
62547;PMS7003;48602;45.192;5.722;2022-08-19T04:20:23;4.50;4.50;3.75
62547;PMS7003;48602;45.192;5.722;2022-08-19T04:22:49;4.50;4.50;4.00
62547;PMS7003;48602;45.192;5.722;2022-08-19T04:25:14;6.75;6.75;4.75
62547;PMS7003;48602;45.192;5.722;2022-08-19T04:27:40;6.00;4.00;4.00
62547;PMS7003;48602;45.192;5.722;2022-08-19T04:30:12;5.60;5.00;4.00
62547;PMS7003;48602;45.192;5.722;2022-08-19T04:32:38;4.00;4.00;3.60
62547;PMS7003;48602;45.192;5.722;2022-08-19T04:35:04;5.50;4.00;3.50
62547;PMS7003;48602;45.192;5.722;2022-08-19T04:37:29;1.00;1.00;1.00
62547;PMS7003;48602;45.192;5.722;2022-08-19T04:39:57;0.20;0.20;0.20
62547;PMS7003;48602;45.192;5.722;2022-08-19T04:42:40;5.60;4.60;4.40
62547;PMS7003;48602;45.192;5.722;2022-08-19T04:45:07;3.00;3.00;3.00
62547;PMS7003;48602;45.192;5.722;2022-08-19T04:47:38;5.20;5.20;4.20
62547;PMS7003;48602;45.192;5.722;2022-08-19T04:50:05;6.00;4.60;4.00
62547;PMS7003;48602;45.192;5.722;2022-08-19T04:52:31;5.20;5.20;4.20
62547;PMS7003;48602;45.192;5.722;2022-08-19T04:54:57;5.25;5.25;4.50
62547;PMS7003;48602;45.192;5.722;2022-08-19T04:57:23;6.60;5.00;5.00
62547;PMS7003;48602;45.192;5.722;2022-08-19T04:59:49;4.00;4.00;4.00
62547;PMS7003;48602;45.192;5.722;2022-08-19T05:02:19;4.80;4.80;4.00
62547;PMS7003;48602;45.192;5.722;2022-08-19T05:04:45;5.00;5.00;4.00
62547;PMS7003;48602;45.192;5.722;2022-08-19T05:07:11;4.25;3.75;3.25
62547;PMS7003;48602;45.192;5.722;2022-08-19T05:09:37;3.00;3.00;2.40
62547;PMS7003;48602;45.192;5.722;2022-08-19T05:12:02;8.75;5.00;4.25
62547;PMS7003;48602;45.192;5.722;2022-08-19T05:14:28;7.75;5.00;4.50
62547;PMS7003;48602;45.192;5.722;2022-08-19T05:16:54;4.50;4.50;3.75
62547;PMS7003;48602;45.192;5.722;2022-08-19T05:19:19;5.25;5.25;5.00
62547;PMS7003;48602;45.192;5.722;2022-08-19T05:22:04;5.00;5.00;3.75
62547;PMS7003;48602;45.192;5.722;2022-08-19T05:24:48;5.20;5.20;4.00
62547;PMS7003;48602;45.192;5.722;2022-08-19T05:27:14;3.50;3.50;3.00
62547;PMS7003;48602;45.192;5.722;2022-08-19T05:29:39;5.00;5.00;4.00
62547;PMS7003;48602;45.192;5.722;2022-08-19T05:32:05;2.25;1.25;1.00
62547;PMS7003;48602;45.192;5.722;2022-08-19T05:34:35;5.80;5.80;5.00
62547;PMS7003;48602;45.192;5.722;2022-08-19T05:37:03;6.60;4.60;4.00
62547;PMS7003;48602;45.192;5.722;2022-08-19T05:39:30;7.80;7.00;5.20
62547;PMS7003;48602;45.192;5.722;2022-08-19T05:41:59;6.00;5.00;4.25
62547;PMS7003;48602;45.192;5.722;2022-08-19T05:44:31;4.00;4.00;3.80
62547;PMS7003;48602;45.192;5.722;2022-08-19T05:46:58;5.60;5.20;4.40
62547;PMS7003;48602;45.192;5.722;2022-08-19T05:49:29;5.20;5.20;4.00
62547;PMS7003;48602;45.192;5.722;2022-08-19T05:51:56;4.00;4.00;3.40
62547;PMS7003;48602;45.192;5.722;2022-08-19T05:54:22;5.00;4.50;3.00
62547;PMS7003;48602;45.192;5.722;2022-08-19T05:56:48;4.40;4.40;3.20
62547;PMS7003;48602;45.192;5.722;2022-08-19T05:59:15;4.80;4.80;4.00
62547;PMS7003;48602;45.192;5.722;2022-08-19T06:01:43;6.00;4.60;4.00
62547;PMS7003;48602;45.192;5.722;2022-08-19T06:04:10;5.00;5.00;4.80
62547;PMS7003;48602;45.192;5.722;2022-08-19T06:06:38;5.00;5.00;4.00
62547;PMS7003;48602;45.192;5.722;2022-08-19T06:09:05;4.00;3.80;3.80
62547;PMS7003;48602;45.192;5.722;2022-08-19T06:11:34;3.40;3.40;3.00
62547;PMS7003;48602;45.192;5.722;2022-08-19T06:14:04;3.40;3.40;3.00
62547;PMS7003;48602;45.192;5.722;2022-08-19T06:16:36;3.80;3.40;3.00
62547;PMS7003;48602;45.192;5.722;2022-08-19T06:19:06;6.00;4.00;4.00
62547;PMS7003;48602;45.192;5.722;2022-08-19T06:21:33;4.40;4.40;4.00
62547;PMS7003;48602;45.192;5.722;2022-08-19T06:24:02;3.60;3.00;2.60
62547;PMS7003;48602;45.192;5.722;2022-08-19T06:26:29;3.00;3.00;3.00
62547;PMS7003;48602;45.192;5.722;2022-08-19T06:28:54;2.00;2.00;2.00
62547;PMS7003;48602;45.192;5.722;2022-08-19T06:31:25;3.00;3.00;3.00
62547;PMS7003;48602;45.192;5.722;2022-08-19T06:34:02;3.00;3.00;3.00
62547;PMS7003;48602;45.192;5.722;2022-08-19T06:36:33;4.60;4.00;3.00
62547;PMS7003;48602;45.192;5.722;2022-08-19T06:39:02;5.60;4.00;3.60
62547;PMS7003;48602;45.192;5.722;2022-08-19T06:41:40;4.00;4.00;3.40
62547;PMS7003;48602;45.192;5.722;2022-08-19T06:44:08;3.80;3.80;3.00
62547;PMS7003;48602;45.192;5.722;2022-08-19T06:46:34;5.00;4.60;4.00
62547;PMS7003;48602;45.192;5.722;2022-08-19T06:49:00;3.60;3.00;2.40
62547;PMS7003;48602;45.192;5.722;2022-08-19T06:51:26;1.00;0.00;0.00
62547;PMS7003;48602;45.192;5.722;2022-08-19T06:53:53;5.50;4.00;3.50
62547;PMS7003;48602;45.192;5.722;2022-08-19T06:56:21;4.80;4.80;4.80
62547;PMS7003;48602;45.192;5.722;2022-08-19T06:58:50;5.00;4.80;4.00
62547;PMS7003;48602;45.192;5.722;2022-08-19T07:01:18;5.40;5.00;4.00
62547;PMS7003;48602;45.192;5.722;2022-08-19T07:03:44;6.80;6.80;5.40
62547;PMS7003;48602;45.192;5.722;2022-08-19T07:06:12;5.20;5.20;4.80
62547;PMS7003;48602;45.192;5.722;2022-08-19T07:08:40;7.40;7.00;5.60
62547;PMS7003;48602;45.192;5.722;2022-08-19T07:11:09;8.00;6.50;5.25
62547;PMS7003;48602;45.192;5.722;2022-08-19T07:13:37;7.00;6.00;5.80
62547;PMS7003;48602;45.192;5.722;2022-08-19T07:16:07;7.40;6.80;5.80
62547;PMS7003;48602;45.192;5.722;2022-08-19T07:18:35;8.00;8.00;5.80
62547;PMS7003;48602;45.192;5.722;2022-08-19T07:21:13;5.00;5.00;4.75
62547;PMS7003;48602;45.192;5.722;2022-08-19T07:23:45;8.80;6.00;5.00
62547;PMS7003;48602;45.192;5.722;2022-08-19T07:28:36;9.25;8.00;6.25
62547;PMS7003;48602;45.192;5.722;2022-08-19T07:31:07;7.75;7.75;6.25
62547;PMS7003;48602;45.192;5.722;2022-08-19T07:33:39;4.80;4.80;4.00
62547;PMS7003;48602;45.192;5.722;2022-08-19T07:36:08;8.00;6.20;5.00
62547;PMS7003;48602;45.192;5.722;2022-08-19T07:38:38;7.60;7.60;6.00
62547;PMS7003;48602;45.192;5.722;2022-08-19T07:41:06;9.20;9.20;7.80
62547;PMS7003;48602;45.192;5.722;2022-08-19T07:43:34;6.00;6.00;5.60
62547;PMS7003;48602;45.192;5.722;2022-08-19T07:46:00;8.00;6.20;5.40
62547;PMS7003;48602;45.192;5.722;2022-08-19T07:48:26;7.00;7.00;6.00
62547;PMS7003;48602;45.192;5.722;2022-08-19T07:50:53;9.80;8.20;7.00
62547;PMS7003;48602;45.192;5.722;2022-08-19T07:53:21;6.40;6.40;5.80
62547;PMS7003;48602;45.192;5.722;2022-08-19T07:55:46;7.20;7.20;5.80
62547;PMS7003;48602;45.192;5.722;2022-08-19T07:58:13;7.50;6.50;4.75
62547;PMS7003;48602;45.192;5.722;2022-08-19T08:00:41;3.20;3.20;2.80
62547;PMS7003;48602;45.192;5.722;2022-08-19T08:03:08;5.80;5.80;4.40
62547;PMS7003;48602;45.192;5.722;2022-08-19T08:05:33;5.50;4.00;3.75
62547;PMS7003;48602;45.192;5.722;2022-08-19T08:08:18;4.00;3.40;3.40
62547;PMS7003;48602;45.192;5.722;2022-08-19T08:11:02;5.40;4.40;4.00
62547;PMS7003;48602;45.192;5.722;2022-08-19T08:13:29;4.40;4.40;4.00
62547;PMS7003;48602;45.192;5.722;2022-08-19T08:15:55;5.75;5.50;4.75
62547;PMS7003;48602;45.192;5.722;2022-08-19T08:18:21;7.00;6.40;5.60
62547;PMS7003;48602;45.192;5.722;2022-08-19T08:20:47;6.50;5.25;4.50
62547;PMS7003;48602;45.192;5.722;2022-08-19T08:23:12;7.50;7.50;6.50
62547;PMS7003;48602;45.192;5.722;2022-08-19T08:25:56;6.20;5.00;4.40
62547;PMS7003;48602;45.192;5.722;2022-08-19T08:28:22;10.00;6.40;5.00
62547;PMS7003;48602;45.192;5.722;2022-08-19T08:30:48;7.00;5.75;5.00
62547;PMS7003;48602;45.192;5.722;2022-08-19T08:33:25;5.80;5.80;5.00
62547;PMS7003;48602;45.192;5.722;2022-08-19T08:35:53;6.20;6.20;5.00
62547;PMS7003;48602;45.192;5.722;2022-08-19T08:38:18;6.25;4.75;4.00
62547;PMS7003;48602;45.192;5.722;2022-08-19T08:40:45;7.25;7.25;6.00
62547;PMS7003;48602;45.192;5.722;2022-08-19T08:45:44;5.00;5.00;4.00
62547;PMS7003;48602;45.192;5.722;2022-08-19T08:51:14;5.60;5.60;4.40
62547;PMS7003;48602;45.192;5.722;2022-08-19T08:53:46;5.60;4.60;4.40
62547;PMS7003;48602;45.192;5.722;2022-08-19T08:56:15;6.20;6.20;5.60
62547;PMS7003;48602;45.192;5.722;2022-08-19T09:01:27;8.00;7.40;6.40
62547;PMS7003;48602;45.192;5.722;2022-08-19T09:03:52;5.00;5.00;5.00
62547;PMS7003;48602;45.192;5.722;2022-08-19T09:06:25;7.40;7.40;6.20
62547;PMS7003;48602;45.192;5.722;2022-08-19T09:09:14;5.40;5.40;4.40
62547;PMS7003;48602;45.192;5.722;2022-08-19T09:16:49;6.60;6.60;5.80
62547;PMS7003;48602;45.192;5.722;2022-08-19T09:19:16;7.80;7.00;6.00
62547;PMS7003;48602;45.192;5.722;2022-08-19T09:21:42;5.80;5.00;4.20
62547;PMS7003;48602;45.192;5.722;2022-08-19T09:24:08;8.00;5.00;4.00
62547;PMS7003;48602;45.192;5.722;2022-08-19T09:26:33;6.00;6.00;5.00
62547;PMS7003;48602;45.192;5.722;2022-08-19T09:28:59;4.75;4.00;3.25
62547;PMS7003;48602;45.192;5.722;2022-08-19T09:31:29;7.00;5.00;5.00
62547;PMS7003;48602;45.192;5.722;2022-08-19T09:33:57;6.00;5.20;4.60
62547;PMS7003;48602;45.192;5.722;2022-08-19T09:36:22;7.00;7.00;6.00
62547;PMS7003;48602;45.192;5.722;2022-08-19T09:38:50;6.20;6.20;5.00
62547;PMS7003;48602;45.192;5.722;2022-08-19T09:41:18;8.00;6.60;4.80
62547;PMS7003;48602;45.192;5.722;2022-08-19T09:43:45;6.60;6.00;5.40
62547;PMS7003;48602;45.192;5.722;2022-08-19T09:46:13;5.80;4.40;3.80
62547;PMS7003;48602;45.192;5.722;2022-08-19T09:48:40;8.00;7.50;6.25
62547;PMS7003;48602;45.192;5.722;2022-08-19T09:51:08;9.40;7.20;6.20
62547;PMS7003;48602;45.192;5.722;2022-08-19T09:53:35;6.40;5.80;5.20
62547;PMS7003;48602;45.192;5.722;2022-08-19T09:56:01;6.00;6.00;5.40
62547;PMS7003;48602;45.192;5.722;2022-08-19T09:58:28;6.80;6.80;6.20
62547;PMS7003;48602;45.192;5.722;2022-08-19T10:00:55;7.60;7.60;7.20
62547;PMS7003;48602;45.192;5.722;2022-08-19T10:03:25;8.00;8.00;7.40
62547;PMS7003;48602;45.192;5.722;2022-08-19T10:06:17;9.60;7.80;6.00
62547;PMS7003;48602;45.192;5.722;2022-08-19T10:08:44;8.40;8.40;7.40
62547;PMS7003;48602;45.192;5.722;2022-08-19T10:11:10;9.00;8.00;7.00
62547;PMS7003;48602;45.192;5.722;2022-08-19T10:13:36;5.00;5.00;4.00
62547;PMS7003;48602;45.192;5.722;2022-08-19T10:16:06;7.00;7.00;6.00
62547;PMS7003;48602;45.192;5.722;2022-08-19T10:18:37;8.20;8.20;7.20
62547;PMS7003;48602;45.192;5.722;2022-08-19T10:21:05;10.50;10.50;7.50
62547;PMS7003;48602;45.192;5.722;2022-08-19T10:23:33;7.20;7.00;6.40
62547;PMS7003;48602;45.192;5.722;2022-08-19T10:25:59;7.60;7.60;7.20
62547;PMS7003;48602;45.192;5.722;2022-08-19T10:28:25;6.20;6.20;4.40
62547;PMS7003;48602;45.192;5.722;2022-08-19T10:30:51;5.75;5.00;4.25
62547;PMS7003;48602;45.192;5.722;2022-08-19T10:33:16;7.00;7.00;6.50
62547;PMS7003;48602;45.192;5.722;2022-08-19T10:35:42;9.25;9.25;7.25
62547;PMS7003;48602;45.192;5.722;2022-08-19T10:38:11;9.00;9.00;7.40
62547;PMS7003;48602;45.192;5.722;2022-08-19T10:40:37;8.75;8.50;7.25
62547;PMS7003;48602;45.192;5.722;2022-08-19T10:43:02;10.00;9.00;7.00
62547;PMS7003;48602;45.192;5.722;2022-08-19T10:45:28;9.00;8.00;6.25
62547;PMS7003;48602;45.192;5.722;2022-08-19T10:47:54;8.50;8.50;6.50
62547;PMS7003;48602;45.192;5.722;2022-08-19T10:50:19;6.00;6.00;4.50
62547;PMS7003;48602;45.192;5.722;2022-08-19T10:53:07;6.20;5.60;5.20
62547;PMS7003;48602;45.192;5.722;2022-08-19T10:55:36;8.60;7.20;6.20
62547;PMS7003;48602;45.192;5.722;2022-08-19T10:58:21;10.00;9.00;7.20
62547;PMS7003;48602;45.192;5.722;2022-08-19T11:00:55;8.00;7.00;5.40
62547;PMS7003;48602;45.192;5.722;2022-08-19T11:03:22;5.40;5.40;5.40
62547;PMS7003;48602;45.192;5.722;2022-08-19T11:06:02;12.00;10.40;9.00
62547;PMS7003;48602;45.192;5.722;2022-08-19T11:08:30;9.20;9.20;8.00
62547;PMS7003;48602;45.192;5.722;2022-08-19T11:10:57;7.25;7.00;6.00
62547;PMS7003;48602;45.192;5.722;2022-08-19T11:13:30;8.00;8.00;6.60
62547;PMS7003;48602;45.192;5.722;2022-08-19T11:18:32;9.40;8.40;6.00
62547;PMS7003;48602;45.192;5.722;2022-08-19T11:21:09;10.20;10.00;7.80
62547;PMS7003;48602;45.192;5.722;2022-08-19T11:23:38;11.20;9.80;8.80
62547;PMS7003;48602;45.192;5.722;2022-08-19T11:26:04;8.80;8.80;7.80
62547;PMS7003;48602;45.192;5.722;2022-08-19T11:28:30;14.00;12.00;10.75
62547;PMS7003;48602;45.192;5.722;2022-08-19T11:30:55;12.75;10.25;8.50
62547;PMS7003;48602;45.192;5.722;2022-08-19T11:33:21;11.00;10.00;6.75
62547;PMS7003;48602;45.192;5.722;2022-08-19T11:35:46;8.25;8.25;7.25
62547;PMS7003;48602;45.192;5.722;2022-08-19T11:38:12;9.75;9.75;9.00
62547;PMS7003;48602;45.192;5.722;2022-08-19T11:40:38;12.00;10.00;8.80
62547;PMS7003;48602;45.192;5.722;2022-08-19T11:43:03;11.00;11.00;9.00
62547;PMS7003;48602;45.192;5.722;2022-08-19T11:45:29;8.00;8.00;7.00
62547;PMS7003;48602;45.192;5.722;2022-08-19T11:47:55;12.00;11.20;11.00
62547;PMS7003;48602;45.192;5.722;2022-08-19T11:50:21;10.25;10.25;8.75
62547;PMS7003;48602;45.192;5.722;2022-08-19T11:52:48;12.00;10.80;9.00
62547;PMS7003;48602;45.192;5.722;2022-08-19T11:55:14;10.40;10.40;9.20
62547;PMS7003;48602;45.192;5.722;2022-08-19T11:57:40;11.80;11.80;10.40
62547;PMS7003;48602;45.192;5.722;2022-08-19T12:00:08;9.00;9.00;8.00
62547;PMS7003;48602;45.192;5.722;2022-08-19T12:02:36;10.20;9.40;8.00
62547;PMS7003;48602;45.192;5.722;2022-08-19T12:05:02;12.25;11.50;9.50
62547;PMS7003;48602;45.192;5.722;2022-08-19T12:07:28;11.20;10.20;7.80
62547;PMS7003;48602;45.192;5.722;2022-08-19T12:09:56;11.00;10.25;9.25
62547;PMS7003;48602;45.192;5.722;2022-08-19T12:12:21;12.75;11.50;8.25
62547;PMS7003;48602;45.192;5.722;2022-08-19T12:14:49;12.00;11.00;9.00
62547;PMS7003;48602;45.192;5.722;2022-08-19T12:17:21;10.80;9.80;7.40
62547;PMS7003;48602;45.192;5.722;2022-08-19T12:19:47;10.50;9.75;7.75
62547;PMS7003;48602;45.192;5.722;2022-08-19T12:22:13;13.00;13.00;11.75
62547;PMS7003;48602;45.192;5.722;2022-08-19T12:24:38;12.25;11.50;10.00
62547;PMS7003;48602;45.192;5.722;2022-08-19T12:27:04;10.50;10.50;9.00
62547;PMS7003;48602;45.192;5.722;2022-08-19T12:29:29;13.75;11.25;8.75
62547;PMS7003;48602;45.192;5.722;2022-08-19T12:31:55;11.50;11.50;10.00
62547;PMS7003;48602;45.192;5.722;2022-08-19T12:34:30;14.60;14.60;11.60
62547;PMS7003;48602;45.192;5.722;2022-08-19T12:36:57;13.00;12.50;10.00
62547;PMS7003;48602;45.192;5.722;2022-08-19T12:39:24;13.50;13.50;9.25
62547;PMS7003;48602;45.192;5.722;2022-08-19T12:41:50;13.00;13.00;11.00
62547;PMS7003;48602;45.192;5.722;2022-08-19T12:44:16;14.80;12.80;8.40
62547;PMS7003;48602;45.192;5.722;2022-08-19T12:46:42;16.25;15.25;11.25
62547;PMS7003;48602;45.192;5.722;2022-08-19T12:49:07;14.75;12.75;10.50
62547;PMS7003;48602;45.192;5.722;2022-08-19T12:51:32;13.50;11.25;10.00
62547;PMS7003;48602;45.192;5.722;2022-08-19T12:53:58;10.00;9.25;8.00
62547;PMS7003;48602;45.192;5.722;2022-08-19T12:56:24;8.60;8.60;7.00
62547;PMS7003;48602;45.192;5.722;2022-08-19T12:58:50;13.75;12.75;10.00
62547;PMS7003;48602;45.192;5.722;2022-08-19T13:01:16;13.00;12.00;11.00
62547;PMS7003;48602;45.192;5.722;2022-08-19T13:03:44;14.00;11.20;9.20
62547;PMS7003;48602;45.192;5.722;2022-08-19T13:06:10;15.25;15.25;11.50
62547;PMS7003;48602;45.192;5.722;2022-08-19T13:08:37;20.50;17.50;15.00
62547;PMS7003;48602;45.192;5.722;2022-08-19T13:11:10;21.00;18.00;14.00
62547;PMS7003;48602;45.192;5.722;2022-08-19T13:13:38;21.25;20.50;16.75
62547;PMS7003;48602;45.192;5.722;2022-08-19T13:16:11;19.00;19.00;14.00
62547;PMS7003;48602;45.192;5.722;2022-08-19T13:18:38;19.75;17.75;14.75
62547;PMS7003;48602;45.192;5.722;2022-08-19T13:21:05;18.25;17.00;12.25
62547;PMS7003;48602;45.192;5.722;2022-08-19T13:23:34;25.00;21.50;16.00
62547;PMS7003;48602;45.192;5.722;2022-08-19T13:26:01;21.75;20.75;17.50
62547;PMS7003;48602;45.192;5.722;2022-08-19T13:28:29;20.00;19.50;16.25
62547;PMS7003;48602;45.192;5.722;2022-08-19T13:31:16;24.00;22.75;16.50
62547;PMS7003;48602;45.192;5.722;2022-08-19T13:34:01;20.75;19.75;15.75
62547;PMS7003;48602;45.192;5.722;2022-08-19T13:36:28;22.75;22.50;17.75
62547;PMS7003;48602;45.192;5.722;2022-08-19T13:38:53;28.00;24.50;19.50
62547;PMS7003;48602;45.192;5.722;2022-08-19T13:41:19;26.25;22.75;16.50
62547;PMS7003;48602;45.192;5.722;2022-08-19T13:43:45;31.25;26.50;19.00
62547;PMS7003;48602;45.192;5.722;2022-08-19T13:46:11;24.50;23.50;16.50
62547;PMS7003;48602;45.192;5.722;2022-08-19T13:48:39;26.25;25.00;19.75
62547;PMS7003;48602;45.192;5.722;2022-08-19T13:51:05;19.00;15.75;12.00
62547;PMS7003;48602;45.192;5.722;2022-08-19T13:53:34;27.50;23.75;18.00
62547;PMS7003;48602;45.192;5.722;2022-08-19T13:56:04;24.00;23.50;17.25
62547;PMS7003;48602;45.192;5.722;2022-08-19T13:58:34;26.00;25.00;20.25
62547;PMS7003;48602;45.192;5.722;2022-08-19T14:01:00;24.25;24.25;19.00
62547;PMS7003;48602;45.192;5.722;2022-08-19T14:03:25;31.00;29.25;19.75
62547;PMS7003;48602;45.192;5.722;2022-08-19T14:05:51;24.75;24.75;17.75
62547;PMS7003;48602;45.192;5.722;2022-08-19T14:08:16;25.50;24.25;19.50
62547;PMS7003;48602;45.192;5.722;2022-08-19T14:10:43;25.75;24.00;17.00
62547;PMS7003;48602;45.192;5.722;2022-08-19T14:13:09;20.50;19.25;16.00
62547;PMS7003;48602;45.192;5.722;2022-08-19T14:15:35;29.50;27.00;19.25
62547;PMS7003;48602;45.192;5.722;2022-08-19T14:18:02;22.75;21.50;17.75
62547;PMS7003;48602;45.192;5.722;2022-08-19T14:20:27;22.00;22.00;17.50
62547;PMS7003;48602;45.192;5.722;2022-08-19T14:22:54;25.50;23.00;16.00
62547;PMS7003;48602;45.192;5.722;2022-08-19T14:25:22;28.25;27.75;19.75
62547;PMS7003;48602;45.192;5.722;2022-08-19T14:27:52;24.00;22.25;18.50
62547;PMS7003;48602;45.192;5.722;2022-08-19T14:30:19;24.75;24.75;18.00
62547;PMS7003;48602;45.192;5.722;2022-08-19T14:32:46;24.25;22.00;16.00
62547;PMS7003;48602;45.192;5.722;2022-08-19T14:35:12;22.00;18.75;15.00
62547;PMS7003;48602;45.192;5.722;2022-08-19T14:37:40;18.50;15.75;13.00
62547;PMS7003;48602;45.192;5.722;2022-08-19T14:40:08;26.75;23.75;17.25